sensor_id;sensor_type;location;lat;lon;timestamp;P1;durP1;ratioP1;P2;durP2;ratioP2
37487;SDS011;23342;52.620;13.300;2022-08-18T00:00:48;12.73;;;10.63;;
37487;SDS011;23342;52.620;13.300;2022-08-18T00:03:13;17.10;;;10.30;;
37487;SDS011;23342;52.620;13.300;2022-08-18T00:05:39;17.30;;;9.87;;
37487;SDS011;23342;52.620;13.300;2022-08-18T00:08:05;10.50;;;9.50;;
37487;SDS011;23342;52.620;13.300;2022-08-18T00:10:31;12.63;;;10.17;;
37487;SDS011;23342;52.620;13.300;2022-08-18T00:12:57;13.87;;;9.93;;
37487;SDS011;23342;52.620;13.300;2022-08-18T00:15:23;13.40;;;10.60;;
37487;SDS011;23342;52.620;13.300;2022-08-18T00:17:50;12.53;;;10.10;;
37487;SDS011;23342;52.620;13.300;2022-08-18T00:20:17;13.33;;;9.90;;
37487;SDS011;23342;52.620;13.300;2022-08-18T00:22:46;11.90;;;10.20;;
37487;SDS011;23342;52.620;13.300;2022-08-18T00:25:13;12.50;;;10.23;;
37487;SDS011;23342;52.620;13.300;2022-08-18T00:27:41;13.97;;;9.97;;
37487;SDS011;23342;52.620;13.300;2022-08-18T00:30:11;14.33;;;10.80;;
37487;SDS011;23342;52.620;13.300;2022-08-18T00:32:42;14.17;;;10.50;;
37487;SDS011;23342;52.620;13.300;2022-08-18T00:35:12;15.00;;;10.60;;
37487;SDS011;23342;52.620;13.300;2022-08-18T00:37:40;15.73;;;10.77;;
37487;SDS011;23342;52.620;13.300;2022-08-18T00:40:07;13.87;;;10.70;;
37487;SDS011;23342;52.620;13.300;2022-08-18T00:42:40;12.67;;;10.93;;
37487;SDS011;23342;52.620;13.300;2022-08-18T00:45:11;12.67;;;11.30;;
37487;SDS011;23342;52.620;13.300;2022-08-18T00:47:39;14.10;;;10.77;;
37487;SDS011;23342;52.620;13.300;2022-08-18T00:50:06;15.90;;;10.90;;
37487;SDS011;23342;52.620;13.300;2022-08-18T00:52:32;19.10;;;11.17;;
37487;SDS011;23342;52.620;13.300;2022-08-18T00:54:58;14.93;;;10.97;;
37487;SDS011;23342;52.620;13.300;2022-08-18T00:57:27;13.53;;;10.77;;
37487;SDS011;23342;52.620;13.300;2022-08-18T00:59:58;13.43;;;10.73;;
37487;SDS011;23342;52.620;13.300;2022-08-18T01:02:40;17.03;;;11.07;;
37487;SDS011;23342;52.620;13.300;2022-08-18T01:05:19;14.97;;;11.43;;
37487;SDS011;23342;52.620;13.300;2022-08-18T01:07:46;14.67;;;11.00;;
37487;SDS011;23342;52.620;13.300;2022-08-18T01:10:14;12.13;;;10.30;;
37487;SDS011;23342;52.620;13.300;2022-08-18T01:12:43;12.33;;;10.27;;
37487;SDS011;23342;52.620;13.300;2022-08-18T01:15:10;13.03;;;10.77;;
37487;SDS011;23342;52.620;13.300;2022-08-18T01:17:38;15.10;;;11.87;;
37487;SDS011;23342;52.620;13.300;2022-08-18T01:20:26;14.90;;;11.27;;
37487;SDS011;23342;52.620;13.300;2022-08-18T01:23:16;12.90;;;11.10;;
37487;SDS011;23342;52.620;13.300;2022-08-18T01:25:44;14.27;;;11.20;;
37487;SDS011;23342;52.620;13.300;2022-08-18T01:28:32;14.60;;;11.27;;
37487;SDS011;23342;52.620;13.300;2022-08-18T01:31:09;12.57;;;11.27;;
37487;SDS011;23342;52.620;13.300;2022-08-18T01:33:41;13.40;;;11.87;;
37487;SDS011;23342;52.620;13.300;2022-08-18T01:36:14;18.40;;;12.43;;
37487;SDS011;23342;52.620;13.300;2022-08-18T01:38:43;13.13;;;10.90;;
37487;SDS011;23342;52.620;13.300;2022-08-18T01:41:09;14.47;;;11.80;;
37487;SDS011;23342;52.620;13.300;2022-08-18T01:43:35;15.13;;;11.87;;
37487;SDS011;23342;52.620;13.300;2022-08-18T01:46:02;15.97;;;12.07;;
37487;SDS011;23342;52.620;13.300;2022-08-18T01:48:29;14.33;;;11.67;;
37487;SDS011;23342;52.620;13.300;2022-08-18T01:50:59;14.00;;;12.50;;
37487;SDS011;23342;52.620;13.300;2022-08-18T01:53:27;16.77;;;11.90;;
37487;SDS011;23342;52.620;13.300;2022-08-18T01:55:53;15.10;;;11.73;;
37487;SDS011;23342;52.620;13.300;2022-08-18T01:58:19;15.83;;;12.33;;
37487;SDS011;23342;52.620;13.300;2022-08-18T02:00:55;14.53;;;11.50;;
37487;SDS011;23342;52.620;13.300;2022-08-18T02:03:23;14.40;;;11.87;;
37487;SDS011;23342;52.620;13.300;2022-08-18T02:05:57;16.20;;;11.63;;
37487;SDS011;23342;52.620;13.300;2022-08-18T02:08:25;14.87;;;11.57;;
37487;SDS011;23342;52.620;13.300;2022-08-18T02:10:50;14.40;;;12.20;;
37487;SDS011;23342;52.620;13.300;2022-08-18T02:13:15;13.83;;;12.10;;
37487;SDS011;23342;52.620;13.300;2022-08-18T02:15:42;14.90;;;12.47;;
37487;SDS011;23342;52.620;13.300;2022-08-18T02:18:14;16.90;;;12.33;;
37487;SDS011;23342;52.620;13.300;2022-08-18T02:20:41;13.27;;;11.87;;
37487;SDS011;23342;52.620;13.300;2022-08-18T02:23:09;17.60;;;12.30;;
37487;SDS011;23342;52.620;13.300;2022-08-18T02:25:35;15.20;;;12.03;;
37487;SDS011;23342;52.620;13.300;2022-08-18T02:28:01;14.07;;;10.97;;
37487;SDS011;23342;52.620;13.300;2022-08-18T02:30:28;16.73;;;12.07;;
37487;SDS011;23342;52.620;13.300;2022-08-18T02:32:56;18.97;;;12.40;;
37487;SDS011;23342;52.620;13.300;2022-08-18T02:35:23;16.23;;;13.00;;
37487;SDS011;23342;52.620;13.300;2022-08-18T02:37:49;16.27;;;12.20;;
37487;SDS011;23342;52.620;13.300;2022-08-18T02:40:14;15.30;;;12.10;;
37487;SDS011;23342;52.620;13.300;2022-08-18T02:42:41;19.80;;;12.20;;
37487;SDS011;23342;52.620;13.300;2022-08-18T02:45:08;16.27;;;12.80;;
37487;SDS011;23342;52.620;13.300;2022-08-18T02:47:34;17.80;;;13.07;;
37487;SDS011;23342;52.620;13.300;2022-08-18T02:49:59;23.43;;;12.83;;
37487;SDS011;23342;52.620;13.300;2022-08-18T02:52:25;19.93;;;13.43;;
37487;SDS011;23342;52.620;13.300;2022-08-18T02:55:08;18.80;;;13.00;;
37487;SDS011;23342;52.620;13.300;2022-08-18T02:57:34;18.13;;;12.77;;
37487;SDS011;23342;52.620;13.300;2022-08-18T03:00:00;18.80;;;12.70;;
37487;SDS011;23342;52.620;13.300;2022-08-18T03:02:27;20.07;;;13.33;;
37487;SDS011;23342;52.620;13.300;2022-08-18T03:04:52;18.20;;;12.90;;
37487;SDS011;23342;52.620;13.300;2022-08-18T03:07:18;17.70;;;12.87;;
37487;SDS011;23342;52.620;13.300;2022-08-18T03:09:43;17.13;;;12.30;;
37487;SDS011;23342;52.620;13.300;2022-08-18T03:12:09;22.57;;;13.43;;
37487;SDS011;23342;52.620;13.300;2022-08-18T03:14:35;17.77;;;13.07;;
37487;SDS011;23342;52.620;13.300;2022-08-18T03:17:05;20.00;;;13.63;;
37487;SDS011;23342;52.620;13.300;2022-08-18T03:19:32;18.80;;;14.17;;
37487;SDS011;23342;52.620;13.300;2022-08-18T03:21:59;21.13;;;13.90;;
37487;SDS011;23342;52.620;13.300;2022-08-18T03:24:25;20.87;;;14.07;;
37487;SDS011;23342;52.620;13.300;2022-08-18T03:26:52;17.20;;;13.17;;
37487;SDS011;23342;52.620;13.300;2022-08-18T03:29:21;16.43;;;12.93;;
37487;SDS011;23342;52.620;13.300;2022-08-18T03:31:47;18.57;;;13.47;;
37487;SDS011;23342;52.620;13.300;2022-08-18T03:34:13;20.57;;;13.77;;
37487;SDS011;23342;52.620;13.300;2022-08-18T03:36:43;18.30;;;12.77;;
37487;SDS011;23342;52.620;13.300;2022-08-18T03:39:10;16.07;;;13.20;;
37487;SDS011;23342;52.620;13.300;2022-08-18T03:41:41;18.97;;;13.43;;
37487;SDS011;23342;52.620;13.300;2022-08-18T03:44:08;21.70;;;13.57;;
37487;SDS011;23342;52.620;13.300;2022-08-18T03:46:34;16.87;;;13.30;;
37487;SDS011;23342;52.620;13.300;2022-08-18T03:49:00;16.37;;;13.70;;
37487;SDS011;23342;52.620;13.300;2022-08-18T03:51:27;18.73;;;13.57;;
37487;SDS011;23342;52.620;13.300;2022-08-18T03:53:57;16.07;;;13.27;;
37487;SDS011;23342;52.620;13.300;2022-08-18T03:56:25;15.77;;;13.13;;
37487;SDS011;23342;52.620;13.300;2022-08-18T03:58:53;17.70;;;13.43;;
37487;SDS011;23342;52.620;13.300;2022-08-18T04:01:23;16.70;;;13.20;;
37487;SDS011;23342;52.620;13.300;2022-08-18T04:03:51;17.63;;;14.07;;
37487;SDS011;23342;52.620;13.300;2022-08-18T04:06:22;20.33;;;13.63;;
37487;SDS011;23342;52.620;13.300;2022-08-18T04:08:52;15.50;;;12.87;;
37487;SDS011;23342;52.620;13.300;2022-08-18T04:11:19;14.57;;;13.03;;
37487;SDS011;23342;52.620;13.300;2022-08-18T04:13:45;17.60;;;13.30;;
37487;SDS011;23342;52.620;13.300;2022-08-18T04:16:11;15.27;;;12.67;;
37487;SDS011;23342;52.620;13.300;2022-08-18T04:18:37;18.53;;;13.63;;
37487;SDS011;23342;52.620;13.300;2022-08-18T04:21:03;20.23;;;13.20;;
37487;SDS011;23342;52.620;13.300;2022-08-18T04:23:34;20.40;;;13.93;;
37487;SDS011;23342;52.620;13.300;2022-08-18T04:26:01;20.47;;;13.70;;
37487;SDS011;23342;52.620;13.300;2022-08-18T04:28:28;20.17;;;12.87;;
37487;SDS011;23342;52.620;13.300;2022-08-18T04:30:54;21.13;;;14.17;;
37487;SDS011;23342;52.620;13.300;2022-08-18T04:33:26;17.43;;;12.77;;
37487;SDS011;23342;52.620;13.300;2022-08-18T04:35:53;16.80;;;13.77;;
37487;SDS011;23342;52.620;13.300;2022-08-18T04:38:19;17.80;;;13.27;;
37487;SDS011;23342;52.620;13.300;2022-08-18T04:40:46;24.10;;;14.60;;
37487;SDS011;23342;52.620;13.300;2022-08-18T04:43:12;16.37;;;13.47;;
37487;SDS011;23342;52.620;13.300;2022-08-18T04:45:40;15.77;;;13.47;;
37487;SDS011;23342;52.620;13.300;2022-08-18T04:48:08;17.33;;;13.00;;
37487;SDS011;23342;52.620;13.300;2022-08-18T04:50:34;19.23;;;12.57;;
37487;SDS011;23342;52.620;13.300;2022-08-18T04:53:01;14.87;;;12.80;;
37487;SDS011;23342;52.620;13.300;2022-08-18T04:55:49;15.20;;;12.67;;
37487;SDS011;23342;52.620;13.300;2022-08-18T04:58:16;16.37;;;12.43;;
37487;SDS011;23342;52.620;13.300;2022-08-18T05:00:49;17.80;;;13.07;;
37487;SDS011;23342;52.620;13.300;2022-08-18T05:03:22;16.37;;;12.47;;
37487;SDS011;23342;52.620;13.300;2022-08-18T05:05:52;16.20;;;12.83;;
37487;SDS011;23342;52.620;13.300;2022-08-18T05:08:18;17.43;;;12.77;;
37487;SDS011;23342;52.620;13.300;2022-08-18T05:10:43;17.10;;;12.40;;
37487;SDS011;23342;52.620;13.300;2022-08-18T05:13:11;21.37;;;13.30;;
37487;SDS011;23342;52.620;13.300;2022-08-18T05:15:40;17.47;;;12.47;;
37487;SDS011;23342;52.620;13.300;2022-08-18T05:18:07;15.73;;;12.83;;
37487;SDS011;23342;52.620;13.300;2022-08-18T05:20:33;19.13;;;13.03;;
37487;SDS011;23342;52.620;13.300;2022-08-18T05:23:00;18.00;;;12.87;;
37487;SDS011;23342;52.620;13.300;2022-08-18T05:25:26;15.37;;;12.60;;
37487;SDS011;23342;52.620;13.300;2022-08-18T05:27:53;20.37;;;13.57;;
37487;SDS011;23342;52.620;13.300;2022-08-18T05:30:18;18.63;;;12.70;;
37487;SDS011;23342;52.620;13.300;2022-08-18T05:32:44;16.77;;;12.87;;
37487;SDS011;23342;52.620;13.300;2022-08-18T05:35:12;16.43;;;12.30;;
37487;SDS011;23342;52.620;13.300;2022-08-18T05:37:50;18.50;;;12.23;;
37487;SDS011;23342;52.620;13.300;2022-08-18T05:40:39;13.93;;;12.37;;
37487;SDS011;23342;52.620;13.300;2022-08-18T05:43:05;16.90;;;12.33;;
37487;SDS011;23342;52.620;13.300;2022-08-18T05:45:32;19.80;;;12.53;;
37487;SDS011;23342;52.620;13.300;2022-08-18T05:47:59;15.40;;;12.03;;
37487;SDS011;23342;52.620;13.300;2022-08-18T05:50:25;17.10;;;13.20;;
37487;SDS011;23342;52.620;13.300;2022-08-18T05:53:07;14.47;;;12.67;;
37487;SDS011;23342;52.620;13.300;2022-08-18T05:55:39;19.73;;;12.53;;
37487;SDS011;23342;52.620;13.300;2022-08-18T05:58:44;15.90;;;12.47;;
37487;SDS011;23342;52.620;13.300;2022-08-18T06:01:21;18.77;;;13.17;;
37487;SDS011;23342;52.620;13.300;2022-08-18T06:03:55;14.33;;;12.50;;
37487;SDS011;23342;52.620;13.300;2022-08-18T06:06:26;15.33;;;12.30;;
37487;SDS011;23342;52.620;13.300;2022-08-18T06:09:43;19.47;;;12.90;;
37487;SDS011;23342;52.620;13.300;2022-08-18T06:12:32;15.20;;;11.87;;
37487;SDS011;23342;52.620;13.300;2022-08-18T06:29:54;16.70;;;12.07;;
37487;SDS011;23342;52.620;13.300;2022-08-18T06:33:00;14.40;;;11.90;;
37487;SDS011;23342;52.620;13.300;2022-08-18T06:36:57;18.03;;;11.90;;
37487;SDS011;23342;52.620;13.300;2022-08-18T06:39:31;15.87;;;12.23;;
37487;SDS011;23342;52.620;13.300;2022-08-18T06:42:00;19.87;;;12.50;;
37487;SDS011;23342;52.620;13.300;2022-08-18T06:44:40;16.23;;;11.87;;
37487;SDS011;23342;52.620;13.300;2022-08-18T06:47:13;20.57;;;11.90;;
37487;SDS011;23342;52.620;13.300;2022-08-18T06:49:58;15.10;;;11.20;;
37487;SDS011;23342;52.620;13.300;2022-08-18T06:52:36;19.00;;;11.43;;
37487;SDS011;23342;52.620;13.300;2022-08-18T06:55:15;13.90;;;12.20;;
37487;SDS011;23342;52.620;13.300;2022-08-18T06:57:53;18.30;;;12.57;;
37487;SDS011;23342;52.620;13.300;2022-08-18T07:00:22;17.13;;;12.23;;
37487;SDS011;23342;52.620;13.300;2022-08-18T07:02:53;15.20;;;11.97;;
37487;SDS011;23342;52.620;13.300;2022-08-18T07:05:29;16.20;;;11.93;;
37487;SDS011;23342;52.620;13.300;2022-08-18T07:12:19;17.63;;;12.30;;
37487;SDS011;23342;52.620;13.300;2022-08-18T07:14:49;18.37;;;12.20;;
37487;SDS011;23342;52.620;13.300;2022-08-18T07:17:21;19.63;;;12.50;;
37487;SDS011;23342;52.620;13.300;2022-08-18T07:20:05;20.80;;;13.93;;
37487;SDS011;23342;52.620;13.300;2022-08-18T07:22:55;19.30;;;13.20;;
37487;SDS011;23342;52.620;13.300;2022-08-18T07:25:37;23.27;;;12.70;;
37487;SDS011;23342;52.620;13.300;2022-08-18T07:28:12;14.80;;;11.83;;
37487;SDS011;23342;52.620;13.300;2022-08-18T07:31:06;20.03;;;12.40;;
37487;SDS011;23342;52.620;13.300;2022-08-18T07:34:18;26.27;;;12.80;;
37487;SDS011;23342;52.620;13.300;2022-08-18T07:37:54;16.97;;;11.50;;
37487;SDS011;23342;52.620;13.300;2022-08-18T07:42:12;17.90;;;12.57;;
37487;SDS011;23342;52.620;13.300;2022-08-18T07:48:17;14.27;;;11.80;;
37487;SDS011;23342;52.620;13.300;2022-08-18T07:52:18;22.70;;;12.73;;
37487;SDS011;23342;52.620;13.300;2022-08-18T07:55:06;17.03;;;12.67;;
37487;SDS011;23342;52.620;13.300;2022-08-18T07:57:44;23.80;;;13.13;;
37487;SDS011;23342;52.620;13.300;2022-08-18T08:05:02;19.07;;;12.63;;
37487;SDS011;23342;52.620;13.300;2022-08-18T08:10:42;17.50;;;12.00;;
37487;SDS011;23342;52.620;13.300;2022-08-18T08:13:23;22.03;;;13.80;;
37487;SDS011;23342;52.620;13.300;2022-08-18T08:16:50;19.60;;;11.53;;
37487;SDS011;23342;52.620;13.300;2022-08-18T08:19:33;17.07;;;12.87;;
37487;SDS011;23342;52.620;13.300;2022-08-18T08:22:30;16.87;;;12.43;;
37487;SDS011;23342;52.620;13.300;2022-08-18T08:25:20;17.40;;;12.13;;
37487;SDS011;23342;52.620;13.300;2022-08-18T08:28:00;15.93;;;12.47;;
37487;SDS011;23342;52.620;13.300;2022-08-18T08:30:35;21.70;;;12.10;;
37487;SDS011;23342;52.620;13.300;2022-08-18T08:34:04;17.53;;;12.10;;
37487;SDS011;23342;52.620;13.300;2022-08-18T08:36:51;15.43;;;12.10;;
37487;SDS011;23342;52.620;13.300;2022-08-18T08:39:26;14.97;;;12.03;;
37487;SDS011;23342;52.620;13.300;2022-08-18T08:42:09;16.80;;;12.00;;
37487;SDS011;23342;52.620;13.300;2022-08-18T08:49:10;16.50;;;12.03;;
37487;SDS011;23342;52.620;13.300;2022-08-18T08:51:48;15.63;;;11.77;;
37487;SDS011;23342;52.620;13.300;2022-08-18T08:54:29;15.10;;;12.37;;
37487;SDS011;23342;52.620;13.300;2022-08-18T08:57:03;17.07;;;12.30;;
37487;SDS011;23342;52.620;13.300;2022-08-18T08:59:29;16.53;;;11.87;;
37487;SDS011;23342;52.620;13.300;2022-08-18T09:04:56;16.87;;;12.03;;
37487;SDS011;23342;52.620;13.300;2022-08-18T09:11:38;15.07;;;12.67;;
37487;SDS011;23342;52.620;13.300;2022-08-18T09:14:50;19.57;;;12.27;;
37487;SDS011;23342;52.620;13.300;2022-08-18T09:28:53;18.97;;;11.97;;
37487;SDS011;23342;52.620;13.300;2022-08-18T09:31:29;14.27;;;11.70;;
37487;SDS011;23342;52.620;13.300;2022-08-18T09:34:04;17.13;;;12.13;;
37487;SDS011;23342;52.620;13.300;2022-08-18T09:37:26;16.57;;;12.37;;
37487;SDS011;23342;52.620;13.300;2022-08-18T09:40:13;18.37;;;12.47;;
